sensor_id;sensor_type;location;lat;lon;timestamp;pressure;altitude;pressure_sealevel;temperature;humidity
37792;BME280;29527;55.766;37.570;2023-07-31T00:00:06;99006.38;;;16.35;66.80
37792;BME280;29527;55.766;37.570;2023-07-31T00:02:34;99014.00;;;16.31;66.54
37792;BME280;29527;55.766;37.570;2023-07-31T00:05:01;99008.97;;;16.28;66.34
37792;BME280;29527;55.766;37.570;2023-07-31T00:07:29;99004.56;;;16.27;66.41
37792;BME280;29527;55.766;37.570;2023-07-31T00:09:54;98988.88;;;16.07;66.34
37792;BME280;29527;55.766;37.570;2023-07-31T00:12:22;99014.91;;;16.24;66.65
37792;BME280;29527;55.766;37.570;2023-07-31T00:14:48;98996.06;;;16.15;66.32
37792;BME280;29527;55.766;37.570;2023-07-31T00:17:14;99008.00;;;16.21;66.78
37792;BME280;29527;55.766;37.570;2023-07-31T00:19:39;98973.75;;;15.98;66.41
37792;BME280;29527;55.766;37.570;2023-07-31T00:22:05;98988.75;;;16.01;67.07
37792;BME280;29527;55.766;37.570;2023-07-31T00:24:30;99021.03;;;16.17;66.58
37792;BME280;29527;55.766;37.570;2023-07-31T00:26:56;99010.41;;;16.16;66.65
37792;BME280;29527;55.766;37.570;2023-07-31T00:29:21;98966.03;;;15.87;66.87
37792;BME280;29527;55.766;37.570;2023-07-31T00:31:47;99017.84;;;16.14;67.20
37792;BME280;29527;55.766;37.570;2023-07-31T00:34:12;99021.56;;;16.13;67.52
37792;BME280;29527;55.766;37.570;2023-07-31T00:36:38;99015.69;;;16.09;67.36
37792;BME280;29527;55.766;37.570;2023-07-31T00:39:04;98979.06;;;15.83;66.97
37792;BME280;29527;55.766;37.570;2023-07-31T00:41:30;98984.94;;;15.87;67.51
37792;BME280;29527;55.766;37.570;2023-07-31T00:43:55;99012.69;;;16.04;67.46
37792;BME280;29527;55.766;37.570;2023-07-31T00:46:21;99003.63;;;15.97;67.11
37792;BME280;29527;55.766;37.570;2023-07-31T00:48:47;99007.66;;;16.01;67.27
37792;BME280;29527;55.766;37.570;2023-07-31T00:51:13;99006.13;;;15.98;67.47
37792;BME280;29527;55.766;37.570;2023-07-31T00:53:40;99000.44;;;15.93;67.26
37792;BME280;29527;55.766;37.570;2023-07-31T00:56:06;99013.94;;;15.93;67.28
37792;BME280;29527;55.766;37.570;2023-07-31T00:58:31;99008.91;;;15.90;67.57
37792;BME280;29527;55.766;37.570;2023-07-31T01:00:57;99002.66;;;15.89;67.45
37792;BME280;29527;55.766;37.570;2023-07-31T01:03:23;99019.19;;;15.86;67.40
37792;BME280;29527;55.766;37.570;2023-07-31T01:06:06;99014.78;;;15.93;67.52
37792;BME280;29527;55.766;37.570;2023-07-31T01:08:47;99008.75;;;15.91;67.38
37792;BME280;29527;55.766;37.570;2023-07-31T01:11:19;99017.50;;;15.85;67.21
37792;BME280;29527;55.766;37.570;2023-07-31T01:13:45;99023.25;;;15.82;67.55
37792;BME280;29527;55.766;37.570;2023-07-31T01:16:11;99012.81;;;15.79;67.91
37792;BME280;29527;55.766;37.570;2023-07-31T01:18:37;98995.31;;;15.75;68.16
37792;BME280;29527;55.766;37.570;2023-07-31T01:26:38;99011.06;;;15.86;67.46
37792;BME280;29527;55.766;37.570;2023-07-31T01:29:16;99016.31;;;15.88;67.34
37792;BME280;29527;55.766;37.570;2023-07-31T01:31:45;98993.63;;;15.74;67.48
37792;BME280;29527;55.766;37.570;2023-07-31T01:34:13;99018.22;;;15.79;67.51
37792;BME280;29527;55.766;37.570;2023-07-31T01:36:41;99017.34;;;15.78;67.84
37792;BME280;29527;55.766;37.570;2023-07-31T01:39:07;99014.84;;;15.77;67.72
37792;BME280;29527;55.766;37.570;2023-07-31T01:41:32;99014.19;;;15.75;67.62
37792;BME280;29527;55.766;37.570;2023-07-31T01:43:58;98998.72;;;15.69;67.76
37792;BME280;29527;55.766;37.570;2023-07-31T01:46:23;99011.97;;;15.78;67.80
37792;BME280;29527;55.766;37.570;2023-07-31T01:48:49;99016.53;;;15.78;67.99
37792;BME280;29527;55.766;37.570;2023-07-31T01:51:14;99013.66;;;15.79;67.36
37792;BME280;29527;55.766;37.570;2023-07-31T01:53:40;99001.00;;;15.80;67.78
37792;BME280;29527;55.766;37.570;2023-07-31T01:56:05;99004.00;;;15.85;67.23
37792;BME280;29527;55.766;37.570;2023-07-31T01:58:31;99010.91;;;15.88;67.31
37792;BME280;29527;55.766;37.570;2023-07-31T02:00:56;98999.63;;;15.84;67.26
37792;BME280;29527;55.766;37.570;2023-07-31T02:03:22;99014.59;;;15.95;67.18
37792;BME280;29527;55.766;37.570;2023-07-31T02:05:48;99004.00;;;15.93;67.36
37792;BME280;29527;55.766;37.570;2023-07-31T02:08:15;99014.25;;;15.98;66.80
37792;BME280;29527;55.766;37.570;2023-07-31T02:10:41;99013.78;;;15.95;66.78
37792;BME280;29527;55.766;37.570;2023-07-31T02:13:07;99012.03;;;16.02;66.67
37792;BME280;29527;55.766;37.570;2023-07-31T02:15:34;99012.84;;;16.02;66.78
37792;BME280;29527;55.766;37.570;2023-07-31T02:18:00;99012.16;;;16.09;66.30
37792;BME280;29527;55.766;37.570;2023-07-31T02:20:25;99015.31;;;16.12;66.20
37792;BME280;29527;55.766;37.570;2023-07-31T02:22:51;99022.22;;;16.15;66.49
37792;BME280;29527;55.766;37.570;2023-07-31T02:25:17;99021.34;;;16.23;66.38
37792;BME280;29527;55.766;37.570;2023-07-31T02:27:42;98997.50;;;16.26;65.60
37792;BME280;29527;55.766;37.570;2023-07-31T02:30:08;99010.38;;;16.39;65.48
37792;BME280;29527;55.766;37.570;2023-07-31T02:32:34;99010.78;;;16.51;65.05
37792;BME280;29527;55.766;37.570;2023-07-31T02:34:59;98982.66;;;16.45;65.22
37792;BME280;29527;55.766;37.570;2023-07-31T02:37:25;99014.00;;;16.70;65.19
37792;BME280;29527;55.766;37.570;2023-07-31T02:39:50;99006.38;;;16.73;64.97
37792;BME280;29527;55.766;37.570;2023-07-31T02:42:16;99011.22;;;16.78;64.43
37792;BME280;29527;55.766;37.570;2023-07-31T02:44:42;99008.97;;;16.82;64.52
37792;BME280;29527;55.766;37.570;2023-07-31T02:47:07;99009.94;;;16.89;64.06
37792;BME280;29527;55.766;37.570;2023-07-31T02:49:33;99009.25;;;16.87;63.91
37792;BME280;29527;55.766;37.570;2023-07-31T02:51:58;99003.50;;;16.90;63.84
37792;BME280;29527;55.766;37.570;2023-07-31T02:54:24;99006.28;;;16.97;63.74
37792;BME280;29527;55.766;37.570;2023-07-31T02:56:49;98998.19;;;16.97;63.62
37792;BME280;29527;55.766;37.570;2023-07-31T02:59:15;99018.84;;;17.13;63.03
37792;BME280;29527;55.766;37.570;2023-07-31T03:01:40;99009.13;;;17.18;62.89
37792;BME280;29527;55.766;37.570;2023-07-31T03:04:06;99012.94;;;17.24;63.21
37792;BME280;29527;55.766;37.570;2023-07-31T03:06:32;99011.91;;;17.25;62.97
37792;BME280;29527;55.766;37.570;2023-07-31T03:08:57;99014.72;;;17.32;62.74
37792;BME280;29527;55.766;37.570;2023-07-31T03:11:23;99015.47;;;17.41;62.38
37792;BME280;29527;55.766;37.570;2023-07-31T03:13:49;99015.91;;;17.44;62.19
37792;BME280;29527;55.766;37.570;2023-07-31T03:16:14;99010.59;;;17.51;61.90
37792;BME280;29527;55.766;37.570;2023-07-31T03:18:40;99010.84;;;17.56;62.10
37792;BME280;29527;55.766;37.570;2023-07-31T03:21:06;99005.91;;;17.60;61.93
37792;BME280;29527;55.766;37.570;2023-07-31T03:23:31;99007.47;;;17.69;61.69
37792;BME280;29527;55.766;37.570;2023-07-31T03:26:01;99012.84;;;17.84;60.83
37792;BME280;29527;55.766;37.570;2023-07-31T03:28:29;98997.19;;;17.79;60.82
37792;BME280;29527;55.766;37.570;2023-07-31T03:30:55;98998.56;;;17.90;60.58
37792;BME280;29527;55.766;37.570;2023-07-31T03:33:21;99013.16;;;18.11;59.94
37792;BME280;29527;55.766;37.570;2023-07-31T03:35:46;98999.31;;;18.21;59.79
37792;BME280;29527;55.766;37.570;2023-07-31T03:38:12;99002.03;;;18.49;58.93
37792;BME280;29527;55.766;37.570;2023-07-31T03:40:38;99007.69;;;19.05;57.27
37792;BME280;29527;55.766;37.570;2023-07-31T03:43:03;99010.31;;;19.89;54.94
37792;BME280;29527;55.766;37.570;2023-07-31T03:45:29;99000.84;;;20.81;52.08
37792;BME280;29527;55.766;37.570;2023-07-31T03:47:54;98994.66;;;21.85;49.61
37792;BME280;29527;55.766;37.570;2023-07-31T03:50:20;99000.81;;;22.88;46.40
37792;BME280;29527;55.766;37.570;2023-07-31T03:52:47;99003.00;;;23.91;44.13
37792;BME280;29527;55.766;37.570;2023-07-31T03:55:12;98970.38;;;24.75;41.82
37792;BME280;29527;55.766;37.570;2023-07-31T03:57:38;98987.59;;;25.64;39.77
37792;BME280;29527;55.766;37.570;2023-07-31T04:00:04;98991.38;;;26.50;37.47
37792;BME280;29527;55.766;37.570;2023-07-31T04:02:30;98988.50;;;27.35;36.07
37792;BME280;29527;55.766;37.570;2023-07-31T04:04:56;98996.53;;;28.14;34.49
37792;BME280;29527;55.766;37.570;2023-07-31T04:07:21;98985.88;;;28.83;32.91
37792;BME280;29527;55.766;37.570;2023-07-31T04:09:47;99002.81;;;29.56;32.32
37792;BME280;29527;55.766;37.570;2023-07-31T04:12:12;99003.25;;;30.16;30.80
37792;BME280;29527;55.766;37.570;2023-07-31T04:14:38;99002.44;;;30.73;29.60
37792;BME280;29527;55.766;37.570;2023-07-31T04:17:03;98996.53;;;31.26;29.01
37792;BME280;29527;55.766;37.570;2023-07-31T04:19:29;98997.78;;;31.60;28.73
37792;BME280;29527;55.766;37.570;2023-07-31T04:21:55;99010.00;;;32.09;27.54
37792;BME280;29527;55.766;37.570;2023-07-31T04:24:20;99008.19;;;32.63;26.68
37792;BME280;29527;55.766;37.570;2023-07-31T04:26:50;99018.53;;;33.41;25.40
37792;BME280;29527;55.766;37.570;2023-07-31T04:29:16;99012.84;;;34.14;24.47
37792;BME280;29527;55.766;37.570;2023-07-31T04:31:41;99019.16;;;34.72;23.94
37792;BME280;29527;55.766;37.570;2023-07-31T04:34:07;99016.25;;;35.11;22.89
37792;BME280;29527;55.766;37.570;2023-07-31T04:36:33;99022.25;;;35.74;22.76
37792;BME280;29527;55.766;37.570;2023-07-31T04:38:59;99009.75;;;36.22;21.89
37792;BME280;29527;55.766;37.570;2023-07-31T04:41:24;99016.91;;;36.83;20.88
37792;BME280;29527;55.766;37.570;2023-07-31T04:43:50;99032.34;;;37.20;20.55
37792;BME280;29527;55.766;37.570;2023-07-31T04:46:15;99024.94;;;37.56;20.24
37792;BME280;29527;55.766;37.570;2023-07-31T04:48:42;99023.50;;;37.85;19.63
37792;BME280;29527;55.766;37.570;2023-07-31T04:51:07;99029.47;;;38.10;19.58
37792;BME280;29527;55.766;37.570;2023-07-31T04:53:33;99026.69;;;38.63;18.79
37792;BME280;29527;55.766;37.570;2023-07-31T04:55:58;99022.09;;;39.15;18.42
37792;BME280;29527;55.766;37.570;2023-07-31T04:58:24;99035.91;;;39.59;17.94
37792;BME280;29527;55.766;37.570;2023-07-31T05:00:49;99003.41;;;39.67;17.46
37792;BME280;29527;55.766;37.570;2023-07-31T05:03:15;99023.56;;;40.24;17.06
37792;BME280;29527;55.766;37.570;2023-07-31T05:05:40;99022.59;;;40.62;16.80
37792;BME280;29527;55.766;37.570;2023-07-31T05:08:06;99026.41;;;40.91;16.30
37792;BME280;29527;55.766;37.570;2023-07-31T05:10:31;99022.63;;;41.45;16.04
37792;BME280;29527;55.766;37.570;2023-07-31T05:12:57;99029.28;;;41.78;15.33
37792;BME280;29527;55.766;37.570;2023-07-31T05:15:22;99025.47;;;42.11;15.41
37792;BME280;29527;55.766;37.570;2023-07-31T05:17:48;99007.06;;;42.14;14.86
37792;BME280;29527;55.766;37.570;2023-07-31T05:20:13;99023.31;;;42.78;15.03
37792;BME280;29527;55.766;37.570;2023-07-31T05:22:40;99020.72;;;43.17;14.24
37792;BME280;29527;55.766;37.570;2023-07-31T05:25:06;99022.47;;;43.73;13.73
37792;BME280;29527;55.766;37.570;2023-07-31T05:27:32;99010.78;;;44.50;13.36
37792;BME280;29527;55.766;37.570;2023-07-31T05:29:57;99020.84;;;45.14;12.95
37792;BME280;29527;55.766;37.570;2023-07-31T05:32:23;99017.34;;;45.48;12.52
37792;BME280;29527;55.766;37.570;2023-07-31T05:34:51;99028.91;;;45.93;12.26
37792;BME280;29527;55.766;37.570;2023-07-31T05:37:17;99023.81;;;46.06;12.07
37792;BME280;29527;55.766;37.570;2023-07-31T05:39:43;99021.34;;;46.35;12.03
37792;BME280;29527;55.766;37.570;2023-07-31T05:42:08;99022.94;;;46.66;11.68
37792;BME280;29527;55.766;37.570;2023-07-31T05:44:34;99018.22;;;46.81;11.48
37792;BME280;29527;55.766;37.570;2023-07-31T05:46:59;99022.19;;;47.18;11.23
37792;BME280;29527;55.766;37.570;2023-07-31T05:49:25;99010.09;;;47.84;10.93
37792;BME280;29527;55.766;37.570;2023-07-31T05:51:50;99011.47;;;48.16;10.53
37792;BME280;29527;55.766;37.570;2023-07-31T05:54:16;99026.63;;;48.64;10.58
37792;BME280;29527;55.766;37.570;2023-07-31T05:56:41;99027.47;;;48.93;9.97
37792;BME280;29527;55.766;37.570;2023-07-31T05:59:09;99032.38;;;49.25;9.82
37792;BME280;29527;55.766;37.570;2023-07-31T06:01:35;99023.84;;;49.58;9.62
37792;BME280;29527;55.766;37.570;2023-07-31T06:04:01;99019.94;;;50.30;9.04
37792;BME280;29527;55.766;37.570;2023-07-31T06:06:28;99026.59;;;50.73;8.75
37792;BME280;29527;55.766;37.570;2023-07-31T06:08:54;99021.97;;;50.93;8.43
37792;BME280;29527;55.766;37.570;2023-07-31T06:11:20;99024.69;;;51.08;8.21
37792;BME280;29527;55.766;37.570;2023-07-31T06:13:46;99021.81;;;51.15;8.40
37792;BME280;29527;55.766;37.570;2023-07-31T06:16:13;99020.91;;;51.22;8.52
37792;BME280;29527;55.766;37.570;2023-07-31T06:18:39;99021.94;;;51.46;7.96
37792;BME280;29527;55.766;37.570;2023-07-31T06:21:05;99024.00;;;51.80;7.71
37792;BME280;29527;55.766;37.570;2023-07-31T06:23:31;99016.91;;;52.27;7.60
37792;BME280;29527;55.766;37.570;2023-07-31T06:25:56;99009.44;;;52.64;7.05
37792;BME280;29527;55.766;37.570;2023-07-31T06:28:27;99018.31;;;53.45;6.59
37792;BME280;29527;55.766;37.570;2023-07-31T06:30:53;99006.00;;;53.48;7.07
37792;BME280;29527;55.766;37.570;2023-07-31T06:33:18;98995.91;;;53.64;6.82
37792;BME280;29527;55.766;37.570;2023-07-31T06:35:44;99021.22;;;53.86;6.61
37792;BME280;29527;55.766;37.570;2023-07-31T06:38:11;99023.50;;;54.15;6.60
37792;BME280;29527;55.766;37.570;2023-07-31T06:40:36;99012.66;;;54.43;6.34
37792;BME280;29527;55.766;37.570;2023-07-31T06:43:02;99026.66;;;54.57;6.32
37792;BME280;29527;55.766;37.570;2023-07-31T06:45:34;99032.03;;;54.72;5.61
37792;BME280;29527;55.766;37.570;2023-07-31T06:48:01;99023.44;;;54.88;5.81
37792;BME280;29527;55.766;37.570;2023-07-31T06:50:28;99030.25;;;55.11;5.22
37792;BME280;29527;55.766;37.570;2023-07-31T06:52:53;99011.22;;;55.50;5.14
37792;BME280;29527;55.766;37.570;2023-07-31T06:55:20;99033.59;;;55.85;5.24
37792;BME280;29527;55.766;37.570;2023-07-31T06:57:50;99025.84;;;56.12;5.03
37792;BME280;29527;55.766;37.570;2023-07-31T07:00:17;99024.09;;;56.44;4.52
37792;BME280;29527;55.766;37.570;2023-07-31T07:02:43;99022.25;;;56.37;4.35
37792;BME280;29527;55.766;37.570;2023-07-31T07:05:09;99010.84;;;56.33;5.06
37792;BME280;29527;55.766;37.570;2023-07-31T07:07:35;99016.31;;;56.28;5.02
37792;BME280;29527;55.766;37.570;2023-07-31T07:10:01;99021.53;;;56.20;5.11
37792;BME280;29527;55.766;37.570;2023-07-31T07:12:31;99026.03;;;56.60;4.41
37792;BME280;29527;55.766;37.570;2023-07-31T07:14:57;99016.34;;;56.67;4.52
37792;BME280;29527;55.766;37.570;2023-07-31T07:17:25;99023.00;;;56.76;4.17
37792;BME280;29527;55.766;37.570;2023-07-31T07:19:51;99019.22;;;56.67;4.56
37792;BME280;29527;55.766;37.570;2023-07-31T07:22:17;99022.59;;;57.13;4.17
37792;BME280;29527;55.766;37.570;2023-07-31T07:24:43;98993.09;;;57.35;3.82
37792;BME280;29527;55.766;37.570;2023-07-31T07:27:09;99011.69;;;57.88;3.69
37792;BME280;29527;55.766;37.570;2023-07-31T07:29:34;99012.34;;;58.37;3.49
37792;BME280;29527;55.766;37.570;2023-07-31T07:32:00;99010.06;;;58.31;4.08
37792;BME280;29527;55.766;37.570;2023-07-31T07:34:27;99024.19;;;58.39;3.48
37792;BME280;29527;55.766;37.570;2023-07-31T07:36:53;99023.88;;;58.46;3.53
37792;BME280;29527;55.766;37.570;2023-07-31T07:39:19;99006.41;;;58.09;3.70
37792;BME280;29527;55.766;37.570;2023-07-31T07:41:44;99028.16;;;58.32;3.97
37792;BME280;29527;55.766;37.570;2023-07-31T07:44:10;99017.16;;;58.17;3.66
37792;BME280;29527;55.766;37.570;2023-07-31T07:46:35;99019.59;;;58.19;3.39
37792;BME280;29527;55.766;37.570;2023-07-31T07:49:01;99016.16;;;57.80;3.64
37792;BME280;29527;55.766;37.570;2023-07-31T07:51:26;99023.63;;;57.55;3.63
37792;BME280;29527;55.766;37.570;2023-07-31T07:53:52;99014.22;;;57.76;3.74
37792;BME280;29527;55.766;37.570;2023-07-31T07:56:17;99011.63;;;57.69;3.77
37792;BME280;29527;55.766;37.570;2023-07-31T07:58:43;99010.47;;;57.67;3.90
37792;BME280;29527;55.766;37.570;2023-07-31T08:01:08;99016.13;;;57.22;3.98
37792;BME280;29527;55.766;37.570;2023-07-31T08:03:34;99009.72;;;56.44;4.05
37792;BME280;29527;55.766;37.570;2023-07-31T08:06:00;99017.28;;;55.95;4.60
37792;BME280;29527;55.766;37.570;2023-07-31T08:08:27;99017.72;;;55.51;4.47
37792;BME280;29527;55.766;37.570;2023-07-31T08:10:52;99003.75;;;55.07;4.71
37792;BME280;29527;55.766;37.570;2023-07-31T08:13:18;99011.91;;;54.75;4.99
37792;BME280;29527;55.766;37.570;2023-07-31T08:15:43;99020.16;;;53.79;5.22
37792;BME280;29527;55.766;37.570;2023-07-31T08:18:10;99006.56;;;53.16;5.42
37792;BME280;29527;55.766;37.570;2023-07-31T08:20:37;99004.72;;;52.23;5.66
37792;BME280;29527;55.766;37.570;2023-07-31T08:23:02;99003.53;;;48.94;7.37
37792;BME280;29527;55.766;37.570;2023-07-31T08:25:28;98973.94;;;45.63;9.48
37792;BME280;29527;55.766;37.570;2023-07-31T08:27:53;99004.97;;;43.16;11.31
37792;BME280;29527;55.766;37.570;2023-07-31T08:30:19;99008.06;;;40.94;12.86
37792;BME280;29527;55.766;37.570;2023-07-31T08:32:45;99002.22;;;39.08;14.83
37792;BME280;29527;55.766;37.570;2023-07-31T08:35:10;99017.25;;;37.62;16.17
37792;BME280;29527;55.766;37.570;2023-07-31T08:37:37;99022.59;;;36.32;17.21
37792;BME280;29527;55.766;37.570;2023-07-31T08:40:04;99015.34;;;35.29;18.12
37792;BME280;29527;55.766;37.570;2023-07-31T08:42:31;98970.44;;;34.09;18.80
37792;BME280;29527;55.766;37.570;2023-07-31T08:44:59;99024.50;;;33.73;19.80
37792;BME280;29527;55.766;37.570;2023-07-31T08:47:25;99011.31;;;33.16;20.00
37792;BME280;29527;55.766;37.570;2023-07-31T08:49:52;98966.09;;;32.27;20.44
37792;BME280;29527;55.766;37.570;2023-07-31T08:52:18;99021.53;;;32.21;22.28
37792;BME280;29527;55.766;37.570;2023-07-31T08:54:43;99026.16;;;31.91;21.74
37792;BME280;29527;55.766;37.570;2023-07-31T08:57:09;99023.81;;;31.54;22.43
37792;BME280;29527;55.766;37.570;2023-07-31T08:59:36;99022.19;;;31.42;21.88
37792;BME280;29527;55.766;37.570;2023-07-31T09:02:06;99021.31;;;31.52;22.51
37792;BME280;29527;55.766;37.570;2023-07-31T09:04:33;99024.84;;;31.68;22.98
37792;BME280;29527;55.766;37.570;2023-07-31T09:07:03;98969.91;;;31.46;22.49
37792;BME280;29527;55.766;37.570;2023-07-31T09:09:33;99023.72;;;31.69;22.03
37792;BME280;29527;55.766;37.570;2023-07-31T09:11:58;99019.91;;;31.60;22.18
37792;BME280;29527;55.766;37.570;2023-07-31T09:14:25;99018.50;;;31.68;22.10
37792;BME280;29527;55.766;37.570;2023-07-31T09:16:52;99010.19;;;31.68;21.78
37792;BME280;29527;55.766;37.570;2023-07-31T09:19:29;98987.63;;;31.45;21.78
37792;BME280;29527;55.766;37.570;2023-07-31T09:21:55;99025.81;;;31.38;22.71
37792;BME280;29527;55.766;37.570;2023-07-31T09:24:31;99021.09;;;31.38;22.81
37792;BME280;29527;55.766;37.570;2023-07-31T09:26:58;99028.13;;;30.94;23.47
37792;BME280;29527;55.766;37.570;2023-07-31T09:29:25;99014.84;;;30.55;23.89
37792;BME280;29527;55.766;37.570;2023-07-31T09:31:52;99012.34;;;30.22;24.78
37792;BME280;29527;55.766;37.570;2023-07-31T09:34:18;99009.59;;;30.17;25.24
37792;BME280;29527;55.766;37.570;2023-07-31T09:36:47;99021.47;;;30.22;24.58
37792;BME280;29527;55.766;37.570;2023-07-31T09:39:14;99012.09;;;30.39;25.19
37792;BME280;29527;55.766;37.570;2023-07-31T09:41:47;99016.53;;;30.66;25.03
37792;BME280;29527;55.766;37.570;2023-07-31T09:44:13;98993.31;;;30.51;24.83
37792;BME280;29527;55.766;37.570;2023-07-31T09:46:39;99011.56;;;30.68;24.32
37792;BME280;29527;55.766;37.570;2023-07-31T09:49:06;99022.06;;;30.66;24.30
37792;BME280;29527;55.766;37.570;2023-07-31T09:51:32;99011.56;;;30.63;23.16
37792;BME280;29527;55.766;37.570;2023-07-31T09:54:03;98983.09;;;30.52;24.24
37792;BME280;29527;55.766;37.570;2023-07-31T09:56:31;99011.56;;;30.73;24.29
37792;BME280;29527;55.766;37.570;2023-07-31T09:58:57;99004.38;;;30.77;24.41
37792;BME280;29527;55.766;37.570;2023-07-31T10:01:23;98999.13;;;30.76;24.23
37792;BME280;29527;55.766;37.570;2023-07-31T10:03:48;99017.91;;;30.74;23.86
37792;BME280;29527;55.766;37.570;2023-07-31T10:06:16;99008.81;;;30.68;23.84
37792;BME280;29527;55.766;37.570;2023-07-31T10:08:45;99014.31;;;30.89;23.01
37792;BME280;29527;55.766;37.570;2023-07-31T10:11:13;99000.44;;;31.15;22.72
37792;BME280;29527;55.766;37.570;2023-07-31T10:13:41;98990.72;;;31.22;23.18
37792;BME280;29527;55.766;37.570;2023-07-31T10:16:07;98977.16;;;31.31;21.97
37792;BME280;29527;55.766;37.570;2023-07-31T10:18:34;99004.09;;;31.71;22.36
37792;BME280;29527;55.766;37.570;2023-07-31T10:21:01;99015.03;;;31.97;22.12
37792;BME280;29527;55.766;37.570;2023-07-31T10:23:27;99022.09;;;32.18;22.86
37792;BME280;29527;55.766;37.570;2023-07-31T10:25:53;99008.78;;;32.20;22.24
37792;BME280;29527;55.766;37.570;2023-07-31T10:28:20;99014.91;;;32.17;21.77
37792;BME280;29527;55.766;37.570;2023-07-31T10:30:46;99006.47;;;31.93;21.75
37792;BME280;29527;55.766;37.570;2023-07-31T10:33:11;99016.19;;;31.90;22.00
37792;BME280;29527;55.766;37.570;2023-07-31T10:35:37;99013.47;;;31.75;22.35
37792;BME280;29527;55.766;37.570;2023-07-31T10:38:11;99018.16;;;31.85;22.36
37792;BME280;29527;55.766;37.570;2023-07-31T10:40:39;99016.50;;;31.84;22.62
37792;BME280;29527;55.766;37.570;2023-07-31T10:43:05;99010.69;;;31.85;22.36
37792;BME280;29527;55.766;37.570;2023-07-31T10:45:42;99024.06;;;32.13;22.46
37792;BME280;29527;55.766;37.570;2023-07-31T10:48:15;99017.19;;;32.05;22.19
37792;BME280;29527;55.766;37.570;2023-07-31T10:50:58;99021.19;;;31.88;23.01
37792;BME280;29527;55.766;37.570;2023-07-31T10:53:32;99013.34;;;31.40;23.32
37792;BME280;29527;55.766;37.570;2023-07-31T10:55:59;99015.06;;;31.31;23.57
37792;BME280;29527;55.766;37.570;2023-07-31T10:58:25;98982.19;;;31.03;23.77
37792;BME280;29527;55.766;37.570;2023-07-31T11:00:55;99020.84;;;31.40;24.41
37792;BME280;29527;55.766;37.570;2023-07-31T11:03:40;99027.44;;;31.49;23.89
37792;BME280;29527;55.766;37.570;2023-07-31T11:06:06;99020.56;;;31.36;23.66
37792;BME280;29527;55.766;37.570;2023-07-31T11:08:34;99018.94;;;31.14;23.19
37792;BME280;29527;55.766;37.570;2023-07-31T11:13:43;99019.84;;;30.78;23.83
37792;BME280;29527;55.766;37.570;2023-07-31T11:16:11;99020.94;;;30.62;24.18
37792;BME280;29527;55.766;37.570;2023-07-31T11:18:39;98984.22;;;30.35;23.89
37792;BME280;29527;55.766;37.570;2023-07-31T11:21:06;99022.59;;;30.53;23.72
37792;BME280;29527;55.766;37.570;2023-07-31T11:23:31;99014.31;;;30.47;23.94
37792;BME280;29527;55.766;37.570;2023-07-31T11:26:00;99020.94;;;30.62;24.40
37792;BME280;29527;55.766;37.570;2023-07-31T11:28:34;99018.19;;;30.77;23.92
37792;BME280;29527;55.766;37.570;2023-07-31T11:31:01;99020.38;;;30.86;23.98
37792;BME280;29527;55.766;37.570;2023-07-31T11:33:26;99006.31;;;30.77;23.71
37792;BME280;29527;55.766;37.570;2023-07-31T11:35:52;99019.56;;;30.70;24.56
37792;BME280;29527;55.766;37.570;2023-07-31T11:38:28;99009.88;;;30.77;24.09
37792;BME280;29527;55.766;37.570;2023-07-31T11:40:56;99001.31;;;30.74;24.57
37792;BME280;29527;55.766;37.570;2023-07-31T11:43:22;99010.72;;;30.83;25.13
37792;BME280;29527;55.766;37.570;2023-07-31T11:45:54;99007.66;;;30.85;24.44
37792;BME280;29527;55.766;37.570;2023-07-31T11:48:31;99010.16;;;30.86;24.60
37792;BME280;29527;55.766;37.570;2023-07-31T11:51:00;99023.16;;;30.91;23.74
37792;BME280;29527;55.766;37.570;2023-07-31T11:56:00;98983.94;;;30.73;24.47
37792;BME280;29527;55.766;37.570;2023-07-31T11:58:26;99017.63;;;30.91;23.85
37792;BME280;29527;55.766;37.570;2023-07-31T12:00:52;99000.50;;;30.78;23.93
37792;BME280;29527;55.766;37.570;2023-07-31T12:03:18;99018.75;;;30.69;24.11
37792;BME280;29527;55.766;37.570;2023-07-31T12:05:44;99014.59;;;30.61;24.61
37792;BME280;29527;55.766;37.570;2023-07-31T12:08:11;99030.88;;;30.53;25.13
37792;BME280;29527;55.766;37.570;2023-07-31T12:10:37;99022.56;;;30.27;25.93
37792;BME280;29527;55.766;37.570;2023-07-31T12:13:04;99024.75;;;30.09;25.28
37792;BME280;29527;55.766;37.570;2023-07-31T12:15:43;99016.69;;;29.97;25.54
37792;BME280;29527;55.766;37.570;2023-07-31T12:18:11;99020.16;;;29.56;26.66
37792;BME280;29527;55.766;37.570;2023-07-31T12:20:47;99036.13;;;29.44;26.77
37792;BME280;29527;55.766;37.570;2023-07-31T12:23:24;99024.63;;;29.19;27.20
37792;BME280;29527;55.766;37.570;2023-07-31T12:26:07;99028.03;;;28.89;27.88
37792;BME280;29527;55.766;37.570;2023-07-31T12:28:44;99042.78;;;28.72;28.20
37792;BME280;29527;55.766;37.570;2023-07-31T12:31:12;99040.84;;;28.40;28.99
37792;BME280;29527;55.766;37.570;2023-07-31T12:33:39;99044.56;;;28.24;28.59
37792;BME280;29527;55.766;37.570;2023-07-31T12:36:16;99044.22;;;28.20;28.98
37792;BME280;29527;55.766;37.570;2023-07-31T12:38:42;99041.22;;;27.99;29.88
37792;BME280;29527;55.766;37.570;2023-07-31T12:41:08;99019.78;;;27.74;30.07
37792;BME280;29527;55.766;37.570;2023-07-31T12:43:35;99054.22;;;27.82;30.94
37792;BME280;29527;55.766;37.570;2023-07-31T12:46:01;99039.28;;;27.72;30.68
37792;BME280;29527;55.766;37.570;2023-07-31T12:48:27;99038.09;;;27.63;31.22
37792;BME280;29527;55.766;37.570;2023-07-31T12:50:52;99048.19;;;27.57;31.47
37792;BME280;29527;55.766;37.570;2023-07-31T12:53:18;99033.91;;;27.60;31.57
37792;BME280;29527;55.766;37.570;2023-07-31T12:55:43;99045.03;;;27.71;31.64
37792;BME280;29527;55.766;37.570;2023-07-31T12:58:09;99015.47;;;27.61;31.80
37792;BME280;29527;55.766;37.570;2023-07-31T13:00:34;99038.63;;;27.87;32.07